KPMD

Palmdale Usaf Plant 42 Airport

Palmdale, California, USA
KPMD 241729Z 2418/2518 VRB03KT P6SM SKC FM241900 24010KT P6SM SKC FM242100 24014G22KT P6SM SKC FM250200 24010KT P6SM SKC FM250600 20008KT P6SM SKC
Issued Valid From Valid To
Sep-24 @ 17:29 UTC
(3 hours ago)
Sep-24 @ 18:00 UTC
(2 hours ago)
Sep-25 @ 18:00 UTC
(in 22 hours)
Expired Click to View Sep-24 @ 18:00 to Sep-24 @ 19:00
KPMD 241729Z 2418/2518 VRB03KT P6SM SKC
Wind Visibility Clouds
Variable at 3 knots Greater than 6 miles
  • Clear skies
From Sep-24 @ 19:00 to Sep-24 @ 21:00
FM241900 24010KT P6SM SKC
Wind Visibility Clouds
240° at 10 knots Greater than 6 miles
  • Clear skies
From Sep-24 @ 21:00 to Sep-25 @ 02:00
FM242100 24014G22KT P6SM SKC
Wind Visibility Clouds
240° at 14 knots
 Gusting to 22 knots
Greater than 6 miles
  • Clear skies
From Sep-25 @ 02:00 to Sep-25 @ 06:00
FM250200 24010KT P6SM SKC
Wind Visibility Clouds
240° at 10 knots Greater than 6 miles
  • Clear skies
From Sep-25 @ 06:00 to Sep-25 @ 18:00
FM250600 20008KT P6SM SKC
Wind Visibility Clouds
200° at 8 knots Greater than 6 miles
  • Clear skies
KPMD 241729Z 2418/2518 VRB03KT P6SM SKC FM241900 24010KT P6SM SKC FM242100 24014G22KT P6SM SKC FM250200 24010KT P6SM SKC FM250600 20008KT P6SM SKC
Issued Sep-24 @ 17:29 UTC
(3 hours ago)
Valid From Sep-24 @ 18:00 UTC
(2 hours ago)
Valid To Sep-25 @ 18:00 UTC
(in 22 hours)
Sep-24 @ 18:00 - Sep-24 @ 19:00
Wind Visibility
Variable at 3 knots Greater than 6 miles
Clouds
  • Clear skies
From Sep-24 @ 19:00 - Sep-24 @ 21:00
Wind Visibility
240° at 10 knots Greater than 6 miles
Clouds
  • Clear skies
From Sep-24 @ 21:00 - Sep-25 @ 02:00
Wind Visibility
240° at 14 knots
 Gusting to 22 knots
Greater than 6 miles
Clouds
  • Clear skies
From Sep-25 @ 02:00 - Sep-25 @ 06:00
Wind Visibility
240° at 10 knots Greater than 6 miles
Clouds
  • Clear skies
From Sep-25 @ 06:00 - Sep-25 @ 18:00
Wind Visibility
200° at 8 knots Greater than 6 miles
Clouds
  • Clear skies